sensor_id;sensor_type;location;lat;lon;timestamp;P1;durP1;ratioP1;P2;durP2;ratioP2
5912;SDS011;2982;42.684;23.356;2023-06-10T00:00:20;7.25;;;6.55;;
5912;SDS011;2982;42.684;23.356;2023-06-10T00:02:46;6.93;;;6.28;;
5912;SDS011;2982;42.684;23.356;2023-06-10T00:05:11;11.93;;;5.78;;
5912;SDS011;2982;42.684;23.356;2023-06-10T00:07:36;7.43;;;6.75;;
5912;SDS011;2982;42.684;23.356;2023-06-10T00:10:01;6.72;;;6.13;;
5912;SDS011;2982;42.684;23.356;2023-06-10T00:12:27;7.78;;;6.90;;
5912;SDS011;2982;42.684;23.356;2023-06-10T00:14:52;7.40;;;6.72;;
5912;SDS011;2982;42.684;23.356;2023-06-10T00:17:17;7.00;;;6.50;;
5912;SDS011;2982;42.684;23.356;2023-06-10T00:19:43;7.93;;;7.32;;
5912;SDS011;2982;42.684;23.356;2023-06-10T00:22:08;7.25;;;6.75;;
5912;SDS011;2982;42.684;23.356;2023-06-10T00:24:34;8.05;;;7.20;;
5912;SDS011;2982;42.684;23.356;2023-06-10T00:26:59;7.53;;;7.00;;
5912;SDS011;2982;42.684;23.356;2023-06-10T00:29:24;7.68;;;7.03;;
5912;SDS011;2982;42.684;23.356;2023-06-10T00:31:50;8.45;;;7.82;;
5912;SDS011;2982;42.684;23.356;2023-06-10T00:34:15;8.05;;;7.50;;
5912;SDS011;2982;42.684;23.356;2023-06-10T00:36:40;8.85;;;8.23;;
5912;SDS011;2982;42.684;23.356;2023-06-10T00:39:05;9.52;;;8.63;;
5912;SDS011;2982;42.684;23.356;2023-06-10T00:41:31;9.57;;;8.25;;
5912;SDS011;2982;42.684;23.356;2023-06-10T00:43:56;8.90;;;8.10;;
5912;SDS011;2982;42.684;23.356;2023-06-10T00:46:22;8.02;;;7.43;;
5912;SDS011;2982;42.684;23.356;2023-06-10T00:48:49;8.05;;;7.22;;
5912;SDS011;2982;42.684;23.356;2023-06-10T00:51:15;8.55;;;7.95;;
5912;SDS011;2982;42.684;23.356;2023-06-10T00:53:41;7.97;;;7.40;;
5912;SDS011;2982;42.684;23.356;2023-06-10T00:56:07;7.28;;;6.78;;
5912;SDS011;2982;42.684;23.356;2023-06-10T00:58:33;8.50;;;7.75;;
5912;SDS011;2982;42.684;23.356;2023-06-10T01:00:58;8.63;;;6.65;;
5912;SDS011;2982;42.684;23.356;2023-06-10T01:03:24;7.55;;;6.93;;
5912;SDS011;2982;42.684;23.356;2023-06-10T01:05:52;7.63;;;7.07;;
5912;SDS011;2982;42.684;23.356;2023-06-10T01:08:28;8.05;;;7.35;;
5912;SDS011;2982;42.684;23.356;2023-06-10T01:10:59;7.53;;;6.80;;
5912;SDS011;2982;42.684;23.356;2023-06-10T01:13:26;7.72;;;7.18;;
5912;SDS011;2982;42.684;23.356;2023-06-10T01:15:57;8.68;;;7.80;;
5912;SDS011;2982;42.684;23.356;2023-06-10T01:18:29;8.23;;;7.65;;
5912;SDS011;2982;42.684;23.356;2023-06-10T01:20:55;10.15;;;8.80;;
5912;SDS011;2982;42.684;23.356;2023-06-10T01:23:20;9.68;;;8.88;;
5912;SDS011;2982;42.684;23.356;2023-06-10T01:25:47;9.27;;;8.48;;
5912;SDS011;2982;42.684;23.356;2023-06-10T01:31:09;9.93;;;9.13;;
5912;SDS011;2982;42.684;23.356;2023-06-10T01:33:35;9.45;;;8.65;;
5912;SDS011;2982;42.684;23.356;2023-06-10T01:36:03;9.10;;;8.23;;
5912;SDS011;2982;42.684;23.356;2023-06-10T01:38:33;8.90;;;8.30;;
5912;SDS011;2982;42.684;23.356;2023-06-10T01:41:04;10.25;;;9.10;;
5912;SDS011;2982;42.684;23.356;2023-06-10T01:43:33;9.50;;;8.63;;
5912;SDS011;2982;42.684;23.356;2023-06-10T01:45:59;9.48;;;8.73;;
5912;SDS011;2982;42.684;23.356;2023-06-10T01:48:24;9.20;;;8.50;;
5912;SDS011;2982;42.684;23.356;2023-06-10T01:50:49;9.80;;;8.85;;
5912;SDS011;2982;42.684;23.356;2023-06-10T01:53:15;9.63;;;8.65;;
5912;SDS011;2982;42.684;23.356;2023-06-10T01:55:40;8.52;;;7.90;;
5912;SDS011;2982;42.684;23.356;2023-06-10T01:58:05;9.35;;;8.52;;
5912;SDS011;2982;42.684;23.356;2023-06-10T02:00:31;8.57;;;7.85;;
5912;SDS011;2982;42.684;23.356;2023-06-10T02:02:56;9.65;;;8.70;;
5912;SDS011;2982;42.684;23.356;2023-06-10T02:05:21;10.43;;;8.15;;
5912;SDS011;2982;42.684;23.356;2023-06-10T02:07:46;9.00;;;8.10;;
5912;SDS011;2982;42.684;23.356;2023-06-10T02:10:12;8.93;;;8.02;;
5912;SDS011;2982;42.684;23.356;2023-06-10T02:12:37;8.95;;;8.02;;
5912;SDS011;2982;42.684;23.356;2023-06-10T02:15:02;9.27;;;8.13;;
5912;SDS011;2982;42.684;23.356;2023-06-10T02:17:28;9.32;;;8.43;;
5912;SDS011;2982;42.684;23.356;2023-06-10T02:19:54;8.68;;;7.63;;
5912;SDS011;2982;42.684;23.356;2023-06-10T02:22:20;9.65;;;8.70;;
5912;SDS011;2982;42.684;23.356;2023-06-10T02:24:46;10.57;;;8.32;;
5912;SDS011;2982;42.684;23.356;2023-06-10T02:27:12;9.02;;;8.23;;
5912;SDS011;2982;42.684;23.356;2023-06-10T02:29:37;9.63;;;8.82;;
5912;SDS011;2982;42.684;23.356;2023-06-10T02:32:03;7.90;;;7.35;;
5912;SDS011;2982;42.684;23.356;2023-06-10T02:34:28;9.43;;;8.57;;
5912;SDS011;2982;42.684;23.356;2023-06-10T02:36:54;11.68;;;8.65;;
5912;SDS011;2982;42.684;23.356;2023-06-10T02:39:19;8.75;;;8.15;;
5912;SDS011;2982;42.684;23.356;2023-06-10T02:41:44;8.82;;;8.00;;
5912;SDS011;2982;42.684;23.356;2023-06-10T02:44:09;8.63;;;8.00;;
5912;SDS011;2982;42.684;23.356;2023-06-10T02:46:35;8.02;;;7.43;;
5912;SDS011;2982;42.684;23.356;2023-06-10T02:49:00;14.18;;;8.48;;
5912;SDS011;2982;42.684;23.356;2023-06-10T02:51:25;9.88;;;8.05;;
5912;SDS011;2982;42.684;23.356;2023-06-10T02:53:51;9.27;;;8.38;;
5912;SDS011;2982;42.684;23.356;2023-06-10T02:56:16;8.60;;;7.75;;
5912;SDS011;2982;42.684;23.356;2023-06-10T02:58:42;12.02;;;8.18;;
5912;SDS011;2982;42.684;23.356;2023-06-10T03:01:07;9.20;;;8.35;;
5912;SDS011;2982;42.684;23.356;2023-06-10T03:03:32;8.73;;;7.93;;
5912;SDS011;2982;42.684;23.356;2023-06-10T03:05:58;9.75;;;8.88;;
5912;SDS011;2982;42.684;23.356;2023-06-10T03:08:23;10.13;;;9.00;;
5912;SDS011;2982;42.684;23.356;2023-06-10T03:10:48;10.85;;;9.73;;
5912;SDS011;2982;42.684;23.356;2023-06-10T03:13:14;11.68;;;8.68;;
5912;SDS011;2982;42.684;23.356;2023-06-10T03:15:39;11.88;;;8.82;;
5912;SDS011;2982;42.684;23.356;2023-06-10T03:18:04;9.63;;;8.95;;
5912;SDS011;2982;42.684;23.356;2023-06-10T03:20:30;11.65;;;9.00;;
5912;SDS011;2982;42.684;23.356;2023-06-10T03:22:55;13.70;;;9.15;;
5912;SDS011;2982;42.684;23.356;2023-06-10T03:25:20;9.77;;;9.07;;
5912;SDS011;2982;42.684;23.356;2023-06-10T03:27:46;9.55;;;8.75;;
5912;SDS011;2982;42.684;23.356;2023-06-10T03:30:12;10.75;;;9.70;;
5912;SDS011;2982;42.684;23.356;2023-06-10T03:32:38;9.07;;;8.20;;
5912;SDS011;2982;42.684;23.356;2023-06-10T03:35:03;9.48;;;8.75;;
5912;SDS011;2982;42.684;23.356;2023-06-10T03:37:29;9.90;;;9.00;;
5912;SDS011;2982;42.684;23.356;2023-06-10T03:39:54;10.02;;;8.90;;
5912;SDS011;2982;42.684;23.356;2023-06-10T03:42:19;9.25;;;8.43;;
5912;SDS011;2982;42.684;23.356;2023-06-10T03:44:45;14.93;;;8.95;;
5912;SDS011;2982;42.684;23.356;2023-06-10T03:47:10;8.10;;;7.45;;
5912;SDS011;2982;42.684;23.356;2023-06-10T03:49:35;8.75;;;8.05;;
5912;SDS011;2982;42.684;23.356;2023-06-10T03:52:01;8.90;;;6.97;;
5912;SDS011;2982;42.684;23.356;2023-06-10T03:54:26;8.45;;;7.05;;
5912;SDS011;2982;42.684;23.356;2023-06-10T03:56:51;6.45;;;6.05;;
5912;SDS011;2982;42.684;23.356;2023-06-10T03:59:16;7.53;;;6.40;;
5912;SDS011;2982;42.684;23.356;2023-06-10T04:01:42;8.85;;;7.10;;
5912;SDS011;2982;42.684;23.356;2023-06-10T04:04:07;8.05;;;7.45;;
5912;SDS011;2982;42.684;23.356;2023-06-10T04:06:32;7.93;;;7.32;;
5912;SDS011;2982;42.684;23.356;2023-06-10T04:08:58;9.45;;;6.90;;
5912;SDS011;2982;42.684;23.356;2023-06-10T04:11:23;8.05;;;7.18;;
5912;SDS011;2982;42.684;23.356;2023-06-10T04:13:49;6.88;;;6.32;;
5912;SDS011;2982;42.684;23.356;2023-06-10T04:16:15;8.15;;;6.63;;
5912;SDS011;2982;42.684;23.356;2023-06-10T04:18:40;6.70;;;6.18;;
5912;SDS011;2982;42.684;23.356;2023-06-10T04:21:05;7.03;;;6.45;;
5912;SDS011;2982;42.684;23.356;2023-06-10T04:23:30;6.57;;;5.70;;
5912;SDS011;2982;42.684;23.356;2023-06-10T04:25:56;6.63;;;6.05;;
5912;SDS011;2982;42.684;23.356;2023-06-10T04:28:21;6.60;;;5.75;;
5912;SDS011;2982;42.684;23.356;2023-06-10T04:30:46;12.55;;;7.70;;
5912;SDS011;2982;42.684;23.356;2023-06-10T04:33:11;11.10;;;7.47;;
5912;SDS011;2982;42.684;23.356;2023-06-10T04:35:37;6.07;;;5.57;;
5912;SDS011;2982;42.684;23.356;2023-06-10T04:38:14;5.30;;;5.00;;
5912;SDS011;2982;42.684;23.356;2023-06-10T04:40:40;8.77;;;6.15;;
5912;SDS011;2982;42.684;23.356;2023-06-10T04:43:05;5.63;;;5.22;;
5912;SDS011;2982;42.684;23.356;2023-06-10T04:45:30;6.65;;;5.75;;
5912;SDS011;2982;42.684;23.356;2023-06-10T04:47:55;6.65;;;6.05;;
5912;SDS011;2982;42.684;23.356;2023-06-10T04:50:21;6.05;;;5.65;;
5912;SDS011;2982;42.684;23.356;2023-06-10T04:52:46;10.25;;;6.40;;
5912;SDS011;2982;42.684;23.356;2023-06-10T04:55:11;8.95;;;6.57;;
5912;SDS011;2982;42.684;23.356;2023-06-10T04:57:37;6.85;;;6.22;;
5912;SDS011;2982;42.684;23.356;2023-06-10T05:00:02;10.25;;;6.28;;
5912;SDS011;2982;42.684;23.356;2023-06-10T05:02:28;7.53;;;6.88;;
5912;SDS011;2982;42.684;23.356;2023-06-10T05:04:53;9.23;;;7.32;;
5912;SDS011;2982;42.684;23.356;2023-06-10T05:07:19;7.95;;;7.35;;
5912;SDS011;2982;42.684;23.356;2023-06-10T05:09:44;7.38;;;6.68;;
5912;SDS011;2982;42.684;23.356;2023-06-10T05:12:09;11.27;;;7.03;;
5912;SDS011;2982;42.684;23.356;2023-06-10T05:14:35;7.25;;;6.72;;
5912;SDS011;2982;42.684;23.356;2023-06-10T05:17:00;7.13;;;6.68;;
5912;SDS011;2982;42.684;23.356;2023-06-10T05:19:25;7.35;;;6.75;;
5912;SDS011;2982;42.684;23.356;2023-06-10T05:21:51;7.97;;;7.32;;
5912;SDS011;2982;42.684;23.356;2023-06-10T05:24:16;9.98;;;6.97;;
5912;SDS011;2982;42.684;23.356;2023-06-10T05:26:41;11.43;;;7.07;;
5912;SDS011;2982;42.684;23.356;2023-06-10T05:29:07;8.63;;;7.88;;
5912;SDS011;2982;42.684;23.356;2023-06-10T05:31:32;7.72;;;7.05;;
5912;SDS011;2982;42.684;23.356;2023-06-10T05:33:58;8.43;;;7.15;;
5912;SDS011;2982;42.684;23.356;2023-06-10T05:36:23;7.95;;;7.20;;
5912;SDS011;2982;42.684;23.356;2023-06-10T05:38:49;9.20;;;7.15;;
5912;SDS011;2982;42.684;23.356;2023-06-10T05:41:14;10.68;;;9.77;;
5912;SDS011;2982;42.684;23.356;2023-06-10T05:43:39;10.02;;;9.23;;
5912;SDS011;2982;42.684;23.356;2023-06-10T05:46:04;11.65;;;9.60;;
5912;SDS011;2982;42.684;23.356;2023-06-10T05:48:30;11.80;;;10.60;;
5912;SDS011;2982;42.684;23.356;2023-06-10T05:50:55;11.40;;;10.43;;
5912;SDS011;2982;42.684;23.356;2023-06-10T05:53:20;11.35;;;8.95;;
5912;SDS011;2982;42.684;23.356;2023-06-10T05:55:46;10.50;;;9.57;;
5912;SDS011;2982;42.684;23.356;2023-06-10T05:58:11;9.77;;;8.88;;
5912;SDS011;2982;42.684;23.356;2023-06-10T06:00:39;9.48;;;8.30;;
5912;SDS011;2982;42.684;23.356;2023-06-10T06:03:07;8.43;;;7.63;;
5912;SDS011;2982;42.684;23.356;2023-06-10T06:05:33;8.70;;;8.05;;
5912;SDS011;2982;42.684;23.356;2023-06-10T06:07:59;13.55;;;8.00;;
5912;SDS011;2982;42.684;23.356;2023-06-10T06:10:24;9.18;;;8.07;;
5912;SDS011;2982;42.684;23.356;2023-06-10T06:12:49;9.23;;;8.25;;
5912;SDS011;2982;42.684;23.356;2023-06-10T06:15:15;10.02;;;8.95;;
5912;SDS011;2982;42.684;23.356;2023-06-10T06:17:40;9.68;;;8.68;;
5912;SDS011;2982;42.684;23.356;2023-06-10T06:20:05;8.18;;;7.50;;
5912;SDS011;2982;42.684;23.356;2023-06-10T06:22:31;9.13;;;8.30;;
5912;SDS011;2982;42.684;23.356;2023-06-10T06:24:56;8.80;;;7.93;;
5912;SDS011;2982;42.684;23.356;2023-06-10T06:27:22;10.13;;;9.18;;
5912;SDS011;2982;42.684;23.356;2023-06-10T06:29:47;8.35;;;7.63;;
5912;SDS011;2982;42.684;23.356;2023-06-10T06:32:12;7.40;;;6.80;;
5912;SDS011;2982;42.684;23.356;2023-06-10T06:34:37;9.57;;;6.57;;
5912;SDS011;2982;42.684;23.356;2023-06-10T06:37:03;12.15;;;7.32;;
5912;SDS011;2982;42.684;23.356;2023-06-10T06:39:28;7.53;;;6.82;;
5912;SDS011;2982;42.684;23.356;2023-06-10T06:41:54;8.88;;;6.75;;
5912;SDS011;2982;42.684;23.356;2023-06-10T06:44:19;11.80;;;6.78;;
5912;SDS011;2982;42.684;23.356;2023-06-10T06:46:44;9.85;;;6.85;;
5912;SDS011;2982;42.684;23.356;2023-06-10T06:49:09;7.13;;;6.63;;
5912;SDS011;2982;42.684;23.356;2023-06-10T06:51:35;10.07;;;7.07;;
5912;SDS011;2982;42.684;23.356;2023-06-10T06:54:00;9.57;;;6.40;;
5912;SDS011;2982;42.684;23.356;2023-06-10T06:56:25;7.70;;;7.03;;
5912;SDS011;2982;42.684;23.356;2023-06-10T06:58:51;7.75;;;7.07;;
5912;SDS011;2982;42.684;23.356;2023-06-10T07:01:16;7.45;;;7.03;;
5912;SDS011;2982;42.684;23.356;2023-06-10T07:03:41;7.18;;;6.65;;
5912;SDS011;2982;42.684;23.356;2023-06-10T07:06:07;6.63;;;5.95;;
5912;SDS011;2982;42.684;23.356;2023-06-10T07:08:32;6.57;;;5.88;;
5912;SDS011;2982;42.684;23.356;2023-06-10T07:10:57;4.90;;;4.50;;
5912;SDS011;2982;42.684;23.356;2023-06-10T07:13:23;8.40;;;3.95;;
5912;SDS011;2982;42.684;23.356;2023-06-10T07:15:48;4.40;;;3.92;;
5912;SDS011;2982;42.684;23.356;2023-06-10T07:18:14;6.60;;;4.10;;
5912;SDS011;2982;42.684;23.356;2023-06-10T07:20:40;4.60;;;4.03;;
5912;SDS011;2982;42.684;23.356;2023-06-10T07:23:05;5.22;;;4.70;;
5912;SDS011;2982;42.684;23.356;2023-06-10T07:25:31;5.35;;;4.90;;
5912;SDS011;2982;42.684;23.356;2023-06-10T07:27:56;5.22;;;4.57;;
5912;SDS011;2982;42.684;23.356;2023-06-10T07:30:21;4.70;;;4.40;;
5912;SDS011;2982;42.684;23.356;2023-06-10T07:32:46;9.93;;;4.82;;
5912;SDS011;2982;42.684;23.356;2023-06-10T07:35:12;4.80;;;4.35;;
5912;SDS011;2982;42.684;23.356;2023-06-10T07:37:37;4.82;;;4.43;;
5912;SDS011;2982;42.684;23.356;2023-06-10T07:40:03;4.70;;;4.05;;
5912;SDS011;2982;42.684;23.356;2023-06-10T07:42:28;6.03;;;4.82;;
5912;SDS011;2982;42.684;23.356;2023-06-10T07:44:54;7.68;;;4.70;;
5912;SDS011;2982;42.684;23.356;2023-06-10T07:47:19;9.60;;;4.25;;
5912;SDS011;2982;42.684;23.356;2023-06-10T07:49:44;7.22;;;4.65;;
5912;SDS011;2982;42.684;23.356;2023-06-10T07:52:09;6.22;;;3.75;;
5912;SDS011;2982;42.684;23.356;2023-06-10T07:54:35;3.80;;;3.50;;
5912;SDS011;2982;42.684;23.356;2023-06-10T07:57:00;4.15;;;3.50;;
5912;SDS011;2982;42.684;23.356;2023-06-10T07:59:25;3.58;;;3.10;;
5912;SDS011;2982;42.684;23.356;2023-06-10T08:01:51;3.35;;;3.05;;
5912;SDS011;2982;42.684;23.356;2023-06-10T08:04:16;2.85;;;2.65;;
5912;SDS011;2982;42.684;23.356;2023-06-10T08:06:41;5.53;;;3.38;;
5912;SDS011;2982;42.684;23.356;2023-06-10T08:09:07;2.88;;;2.67;;
5912;SDS011;2982;42.684;23.356;2023-06-10T08:11:32;2.92;;;2.67;;
5912;SDS011;2982;42.684;23.356;2023-06-10T08:13:57;7.30;;;2.45;;
5912;SDS011;2982;42.684;23.356;2023-06-10T08:16:22;3.60;;;2.40;;
5912;SDS011;2982;42.684;23.356;2023-06-10T08:18:48;3.28;;;2.50;;
5912;SDS011;2982;42.684;23.356;2023-06-10T08:21:13;2.42;;;2.22;;
5912;SDS011;2982;42.684;23.356;2023-06-10T08:23:38;2.55;;;2.45;;
5912;SDS011;2982;42.684;23.356;2023-06-10T08:26:04;3.10;;;2.90;;
5912;SDS011;2982;42.684;23.356;2023-06-10T08:28:29;5.53;;;2.95;;
5912;SDS011;2982;42.684;23.356;2023-06-10T08:30:54;3.85;;;3.40;;
5912;SDS011;2982;42.684;23.356;2023-06-10T08:33:19;5.68;;;3.40;;
5912;SDS011;2982;42.684;23.356;2023-06-10T08:35:45;3.72;;;3.42;;
5912;SDS011;2982;42.684;23.356;2023-06-10T08:38:10;4.10;;;3.30;;
5912;SDS011;2982;42.684;23.356;2023-06-10T08:40:35;6.53;;;3.25;;
5912;SDS011;2982;42.684;23.356;2023-06-10T08:43:06;4.07;;;3.42;;
5912;SDS011;2982;42.684;23.356;2023-06-10T08:45:32;3.50;;;3.20;;
5912;SDS011;2982;42.684;23.356;2023-06-10T08:48:00;3.83;;;3.47;;
5912;SDS011;2982;42.684;23.356;2023-06-10T08:50:27;5.10;;;3.15;;
5912;SDS011;2982;42.684;23.356;2023-06-10T08:52:54;2.75;;;2.40;;
5912;SDS011;2982;42.684;23.356;2023-06-10T08:55:27;2.78;;;2.58;;
5912;SDS011;2982;42.684;23.356;2023-06-10T08:57:58;2.75;;;2.55;;
5912;SDS011;2982;42.684;23.356;2023-06-10T09:00:25;2.92;;;2.72;;
5912;SDS011;2982;42.684;23.356;2023-06-10T09:02:51;2.88;;;2.63;;
5912;SDS011;2982;42.684;23.356;2023-06-10T09:05:17;2.67;;;2.28;;
5912;SDS011;2982;42.684;23.356;2023-06-10T09:07:42;2.78;;;2.63;;
5912;SDS011;2982;42.684;23.356;2023-06-10T09:10:08;2.72;;;2.53;;
5912;SDS011;2982;42.684;23.356;2023-06-10T09:12:34;2.42;;;2.22;;
5912;SDS011;2982;42.684;23.356;2023-06-10T09:14:59;2.35;;;2.20;;
5912;SDS011;2982;42.684;23.356;2023-06-10T09:17:24;6.22;;;3.40;;
5912;SDS011;2982;42.684;23.356;2023-06-10T09:19:50;2.55;;;2.40;;
5912;SDS011;2982;42.684;23.356;2023-06-10T09:22:17;3.75;;;2.42;;
5912;SDS011;2982;42.684;23.356;2023-06-10T09:24:43;2.97;;;2.40;;
5912;SDS011;2982;42.684;23.356;2023-06-10T09:27:08;2.10;;;2.00;;
5912;SDS011;2982;42.684;23.356;2023-06-10T09:32:18;1.95;;;1.85;;
5912;SDS011;2982;42.684;23.356;2023-06-10T09:34:44;12.90;;;2.70;;
5912;SDS011;2982;42.684;23.356;2023-06-10T09:37:10;3.92;;;2.13;;
5912;SDS011;2982;42.684;23.356;2023-06-10T09:39:35;2.17;;;2.08;;
5912;SDS011;2982;42.684;23.356;2023-06-10T09:42:01;3.13;;;2.92;;
5912;SDS011;2982;42.684;23.356;2023-06-10T09:44:26;2.55;;;2.35;;
5912;SDS011;2982;42.684;23.356;2023-06-10T09:46:52;2.58;;;2.38;;
5912;SDS011;2982;42.684;23.356;2023-06-10T09:49:17;2.35;;;2.25;;
5912;SDS011;2982;42.684;23.356;2023-06-10T09:51:52;3.95;;;2.70;;
5912;SDS011;2982;42.684;23.356;2023-06-10T09:54:22;3.17;;;2.88;;
5912;SDS011;2982;42.684;23.356;2023-06-10T09:56:48;2.42;;;2.22;;
5912;SDS011;2982;42.684;23.356;2023-06-10T09:59:15;2.72;;;2.53;;
5912;SDS011;2982;42.684;23.356;2023-06-10T10:01:40;5.00;;;2.50;;
5912;SDS011;2982;42.684;23.356;2023-06-10T10:04:05;3.60;;;1.90;;
5912;SDS011;2982;42.684;23.356;2023-06-10T10:06:31;4.20;;;2.40;;
5912;SDS011;2982;42.684;23.356;2023-06-10T10:08:56;2.17;;;2.08;;
5912;SDS011;2982;42.684;23.356;2023-06-10T10:11:22;2.40;;;2.13;;
5912;SDS011;2982;42.684;23.356;2023-06-10T10:13:49;1.83;;;1.73;;
5912;SDS011;2982;42.684;23.356;2023-06-10T10:16:17;2.25;;;2.03;;
5912;SDS011;2982;42.684;23.356;2023-06-10T10:18:54;2.53;;;2.25;;
5912;SDS011;2982;42.684;23.356;2023-06-10T10:21:24;2.83;;;1.85;;
5912;SDS011;2982;42.684;23.356;2023-06-10T10:26:30;2.92;;;2.17;;
5912;SDS011;2982;42.684;23.356;2023-06-10T10:29:08;3.55;;;3.03;;
5912;SDS011;2982;42.684;23.356;2023-06-10T10:31:37;6.75;;;3.22;;
5912;SDS011;2982;42.684;23.356;2023-06-10T10:34:07;3.33;;;3.03;;
5912;SDS011;2982;42.684;23.356;2023-06-10T10:36:37;4.30;;;2.30;;
5912;SDS011;2982;42.684;23.356;2023-06-10T10:39:03;4.90;;;2.95;;
5912;SDS011;2982;42.684;23.356;2023-06-10T10:41:29;3.10;;;2.90;;
5912;SDS011;2982;42.684;23.356;2023-06-10T10:43:56;3.60;;;3.20;;
5912;SDS011;2982;42.684;23.356;2023-06-10T10:46:21;2.67;;;2.47;;
5912;SDS011;2982;42.684;23.356;2023-06-10T10:48:49;3.35;;;2.83;;
5912;SDS011;2982;42.684;23.356;2023-06-10T10:51:17;3.92;;;3.05;;
5912;SDS011;2982;42.684;23.356;2023-06-10T10:53:43;3.00;;;2.78;;
5912;SDS011;2982;42.684;23.356;2023-06-10T10:56:12;2.50;;;2.30;;
5912;SDS011;2982;42.684;23.356;2023-06-10T10:58:38;4.18;;;2.15;;
5912;SDS011;2982;42.684;23.356;2023-06-10T11:01:22;2.92;;;2.55;;
5912;SDS011;2982;42.684;23.356;2023-06-10T11:03:48;3.45;;;2.40;;
5912;SDS011;2982;42.684;23.356;2023-06-10T11:06:14;6.07;;;2.90;;
5912;SDS011;2982;42.684;23.356;2023-06-10T11:11:19;3.00;;;2.80;;
5912;SDS011;2982;42.684;23.356;2023-06-10T11:13:57;3.30;;;3.00;;
5912;SDS011;2982;42.684;23.356;2023-06-10T11:16:28;2.72;;;2.60;;
5912;SDS011;2982;42.684;23.356;2023-06-10T11:18:54;4.43;;;2.75;;
5912;SDS011;2982;42.684;23.356;2023-06-10T11:21:20;2.92;;;2.70;;
5912;SDS011;2982;42.684;23.356;2023-06-10T11:23:47;2.53;;;2.30;;
5912;SDS011;2982;42.684;23.356;2023-06-10T11:31:24;5.18;;;2.72;;
5912;SDS011;2982;42.684;23.356;2023-06-10T11:33:54;3.13;;;2.92;;
5912;SDS011;2982;42.684;23.356;2023-06-10T11:36:23;3.92;;;3.13;;
5912;SDS011;2982;42.684;23.356;2023-06-10T11:39:02;3.75;;;3.45;;
5912;SDS011;2982;42.684;23.356;2023-06-10T11:41:29;3.60;;;3.30;;
5912;SDS011;2982;42.684;23.356;2023-06-10T11:43:56;4.28;;;2.75;;
5912;SDS011;2982;42.684;23.356;2023-06-10T11:46:26;5.85;;;3.70;;
5912;SDS011;2982;42.684;23.356;2023-06-10T11:48:51;3.55;;;3.17;;
5912;SDS011;2982;42.684;23.356;2023-06-10T11:51:18;3.15;;;2.95;;
5912;SDS011;2982;42.684;23.356;2023-06-10T11:53:53;4.30;;;2.75;;
5912;SDS011;2982;42.684;23.356;2023-06-10T11:56:22;2.95;;;2.65;;
5912;SDS011;2982;42.684;23.356;2023-06-10T12:01:25;6.45;;;2.40;;
5912;SDS011;2982;42.684;23.356;2023-06-10T12:04:24;2.38;;;2.17;;
5912;SDS011;2982;42.684;23.356;2023-06-10T12:06:49;2.20;;;2.10;;
5912;SDS011;2982;42.684;23.356;2023-06-10T12:09:33;4.32;;;2.80;;
5912;SDS011;2982;42.684;23.356;2023-06-10T12:17:15;2.15;;;2.03;;
5912;SDS011;2982;42.684;23.356;2023-06-10T12:19:40;1.90;;;1.80;;
5912;SDS011;2982;42.684;23.356;2023-06-10T12:22:05;2.50;;;2.30;;
5912;SDS011;2982;42.684;23.356;2023-06-10T12:24:31;2.55;;;2.10;;
5912;SDS011;2982;42.684;23.356;2023-06-10T12:26:56;2.30;;;2.20;;
5912;SDS011;2982;42.684;23.356;2023-06-10T12:29:22;2.13;;;2.03;;
5912;SDS011;2982;42.684;23.356;2023-06-10T12:31:52;4.70;;;2.72;;
5912;SDS011;2982;42.684;23.356;2023-06-10T12:34:19;2.80;;;2.60;;
5912;SDS011;2982;42.684;23.356;2023-06-10T12:36:48;2.50;;;2.30;;
5912;SDS011;2982;42.684;23.356;2023-06-10T12:39:14;2.72;;;2.42;;
5912;SDS011;2982;42.684;23.356;2023-06-10T12:41:39;3.90;;;2.67;;
5912;SDS011;2982;42.684;23.356;2023-06-10T12:44:04;3.00;;;2.70;;
5912;SDS011;2982;42.684;23.356;2023-06-10T12:46:39;2.35;;;2.05;;
5912;SDS011;2982;42.684;23.356;2023-06-10T12:49:04;3.10;;;2.10;;
5912;SDS011;2982;42.684;23.356;2023-06-10T12:51:29;2.83;;;2.30;;
5912;SDS011;2982;42.684;23.356;2023-06-10T12:53:55;2.55;;;2.35;;
5912;SDS011;2982;42.684;23.356;2023-06-10T12:56:20;2.10;;;2.00;;
5912;SDS011;2982;42.684;23.356;2023-06-10T12:58:45;4.68;;;2.13;;
5912;SDS011;2982;42.684;23.356;2023-06-10T13:01:10;2.67;;;2.47;;
5912;SDS011;2982;42.684;23.356;2023-06-10T13:03:37;2.30;;;2.10;;
5912;SDS011;2982;42.684;23.356;2023-06-10T13:06:03;2.60;;;2.35;;
5912;SDS011;2982;42.684;23.356;2023-06-10T13:08:28;2.75;;;2.20;;
5912;SDS011;2982;42.684;23.356;2023-06-10T13:10:53;2.50;;;2.30;;
5912;SDS011;2982;42.684;23.356;2023-06-10T13:13:20;3.45;;;1.92;;
5912;SDS011;2982;42.684;23.356;2023-06-10T13:15:45;2.90;;;2.45;;
5912;SDS011;2982;42.684;23.356;2023-06-10T13:18:10;2.17;;;1.80;;
5912;SDS011;2982;42.684;23.356;2023-06-10T13:20:36;2.88;;;2.13;;
5912;SDS011;2982;42.684;23.356;2023-06-10T13:23:01;3.40;;;2.05;;
5912;SDS011;2982;42.684;23.356;2023-06-10T13:25:26;2.35;;;2.15;;
5912;SDS011;2982;42.684;23.356;2023-06-10T13:27:51;5.07;;;2.38;;
5912;SDS011;2982;42.684;23.356;2023-06-10T13:30:17;3.45;;;3.15;;
5912;SDS011;2982;42.684;23.356;2023-06-10T13:32:42;2.80;;;2.60;;
5912;SDS011;2982;42.684;23.356;2023-06-10T13:35:07;2.88;;;2.42;;
5912;SDS011;2982;42.684;23.356;2023-06-10T13:37:33;6.85;;;3.22;;
5912;SDS011;2982;42.684;23.356;2023-06-10T13:39:59;3.15;;;2.88;;
5912;SDS011;2982;42.684;23.356;2023-06-10T13:42:24;3.35;;;3.05;;
5912;SDS011;2982;42.684;23.356;2023-06-10T13:44:50;3.20;;;2.90;;
5912;SDS011;2982;42.684;23.356;2023-06-10T13:47:15;5.00;;;3.53;;
5912;SDS011;2982;42.684;23.356;2023-06-10T13:49:40;3.70;;;3.33;;
5912;SDS011;2982;42.684;23.356;2023-06-10T13:52:06;7.45;;;3.45;;
5912;SDS011;2982;42.684;23.356;2023-06-10T13:54:32;6.22;;;3.60;;
5912;SDS011;2982;42.684;23.356;2023-06-10T13:56:58;3.70;;;3.20;;
5912;SDS011;2982;42.684;23.356;2023-06-10T13:59:23;4.07;;;3.38;;
5912;SDS011;2982;42.684;23.356;2023-06-10T14:01:52;3.25;;;2.97;;
5912;SDS011;2982;42.684;23.356;2023-06-10T14:04:17;5.18;;;3.13;;
5912;SDS011;2982;42.684;23.356;2023-06-10T14:06:42;3.88;;;3.55;;
5912;SDS011;2982;42.684;23.356;2023-06-10T14:09:07;4.18;;;3.65;;
5912;SDS011;2982;42.684;23.356;2023-06-10T14:11:33;8.38;;;3.83;;
5912;SDS011;2982;42.684;23.356;2023-06-10T14:13:58;3.55;;;3.30;;
5912;SDS011;2982;42.684;23.356;2023-06-10T14:16:24;3.30;;;3.10;;
5912;SDS011;2982;42.684;23.356;2023-06-10T14:18:49;6.32;;;3.28;;
5912;SDS011;2982;42.684;23.356;2023-06-10T14:21:15;4.88;;;2.85;;
5912;SDS011;2982;42.684;23.356;2023-06-10T14:23:40;3.85;;;3.55;;
5912;SDS011;2982;42.684;23.356;2023-06-10T14:26:05;3.60;;;3.30;;
5912;SDS011;2982;42.684;23.356;2023-06-10T14:28:30;3.58;;;3.28;;
5912;SDS011;2982;42.684;23.356;2023-06-10T14:30:56;3.38;;;3.17;;
5912;SDS011;2982;42.684;23.356;2023-06-10T14:33:21;3.22;;;2.92;;
5912;SDS011;2982;42.684;23.356;2023-06-10T14:35:46;3.58;;;3.38;;
5912;SDS011;2982;42.684;23.356;2023-06-10T14:38:11;3.30;;;3.00;;
5912;SDS011;2982;42.684;23.356;2023-06-10T14:40:37;3.10;;;2.90;;
5912;SDS011;2982;42.684;23.356;2023-06-10T14:43:02;4.68;;;2.90;;
5912;SDS011;2982;42.684;23.356;2023-06-10T14:45:27;4.72;;;3.05;;
5912;SDS011;2982;42.684;23.356;2023-06-10T14:47:53;3.45;;;3.05;;
5912;SDS011;2982;42.684;23.356;2023-06-10T14:50:18;3.10;;;2.90;;
5912;SDS011;2982;42.684;23.356;2023-06-10T14:52:43;5.32;;;2.72;;
5912;SDS011;2982;42.684;23.356;2023-06-10T14:55:08;5.28;;;2.88;;
5912;SDS011;2982;42.684;23.356;2023-06-10T14:57:34;3.30;;;3.10;;
5912;SDS011;2982;42.684;23.356;2023-06-10T14:59:59;5.45;;;3.60;;
5912;SDS011;2982;42.684;23.356;2023-06-10T15:02:24;3.40;;;3.10;;
5912;SDS011;2982;42.684;23.356;2023-06-10T15:04:50;5.82;;;2.80;;
5912;SDS011;2982;42.684;23.356;2023-06-10T15:07:15;3.88;;;2.80;;
5912;SDS011;2982;42.684;23.356;2023-06-10T15:09:41;4.10;;;2.78;;
5912;SDS011;2982;42.684;23.356;2023-06-10T15:12:06;4.80;;;3.40;;
5912;SDS011;2982;42.684;23.356;2023-06-10T15:14:32;3.40;;;3.20;;
5912;SDS011;2982;42.684;23.356;2023-06-10T15:16:57;3.38;;;3.17;;